Terminal Aerodrome Forecast
Issued by NWS Detroit/Pontiac, MI

Home | Current Version | Previous Version | Text Only | Print | Product List | Glossary On
Versions: 1 2 3 4 5 6 7 8 9 10 11 12 13 14 15 16 17 18 19 20 21 22 23 24
133
FTUS43 KDTX 222052 AAA
TAFDTW
TAF AMD
KDTW 222052Z 2221/2324 08007KT P6SM FEW250
     FM230200 04004KT P6SM SKC
     FM231500 11009KT P6SM SCT250=

USA.gov is the U.S. government's official web portal to all federal, state and local government web resources and services.